Flight Track Log - Related Links

Times and Time Zones

All times are in EDT time to prevent confusion due to time zone crossing. See the AAY846 flight status page for this flight to view local times or setup timezone preferences in your user account.

Time Position Orientation Groundspeed Altitude Reporting Facility
EDT Latitude Longitude Course Direction KTS MPH feet Rate Location/Type
08:32AM 27.9167 -82.6833 360° North 170 196 600  Level Tampa TRACON
08:33AM 27.9667 -82.6833 360° North 195 224 2,000 2,012 Climbing Tampa TRACON
08:34AM 28.0914 -82.6761 North 268 308 6,000 2,458 Climbing Jacksonville Center
08:35AM 28.1706 -82.6994 345° North 268 308 8,800 2,450 Climbing Jacksonville Center
08:36AM 28.2519 -82.7275 343° North 287 330 10,900 1,800 Climbing Jacksonville Center
08:37AM 28.3481 -82.7511 348° North 321 369 12,400 1,950 Climbing Jacksonville Center
08:38AM 28.4483 -82.7864 343° North 350 403 14,800 2,150 Climbing Jacksonville Center
08:39AM 28.5506 -82.8144 346° North 371 427 16,700 1,750 Climbing Jacksonville Center
08:40AM 28.6592 -82.8453 346° North 382 440 18,300 1,636 Climbing Jacksonville Center
08:41AM 28.7656 -82.8761 346° North 393 452 20,000 1,650 Climbing Jacksonville Center
08:42AM 28.8783 -82.9044 348° North 398 458 21,600 1,563 Climbing Jacksonville Center
08:43AM 28.9764 -82.9781 327° Northwest 404 465 23,100 1,450 Climbing Jacksonville Center
08:44AM 29.0722 -83.0589 324° Northwest 412 474 24,500 1,300 Climbing Jacksonville Center
08:45AM 29.1661 -83.1447 321° Northwest 428 493 25,700 1,350 Climbing Jacksonville Center
08:46AM 29.2661 -83.2306 323° Northwest 444 511 27,200 1,300 Climbing Jacksonville Center
08:47AM 29.3639 -83.3167 323° Northwest 444 511 28,300 1,050 Climbing Jacksonville Center
08:48AM 29.4639 -83.4053 322° Northwest 444 511 29,300 1,000 Climbing Jacksonville Center
08:49AM 29.5656 -83.4967 322° Northwest 456 525 30,300 1,150 Climbing Jacksonville Center
08:50AM 29.6675 -83.5833 324° Northwest 456 525 31,600 1,150 Climbing Jacksonville Center
08:51AM 29.7842 -83.6464 335° Northwest 461 531 32,600 1,289 Climbing Jacksonville Center
08:52AM 29.9006 -83.7025 337° Northwest 456 525 34,200 1,250 Climbing Jacksonville Center
08:53AM 30.0150 -83.7608 336° Northwest 451 519 35,100 857 Climbing Jacksonville Center
08:54AM 30.1336 -83.8147 339° North 451 519 35,900 400 Climbing Jacksonville Center
08:55AM 30.2481 -83.8711 337° Northwest 451 519 35,900  Level Jacksonville Center
08:56AM 30.3667 -83.9256 338° Northwest 456 525 35,900  Level Jacksonville Center
08:57AM 30.4769 -83.9844 335° Northwest 456 525 35,900 50 Level Jacksonville Center
08:58AM 30.5789 -84.0339 337° Northwest 450 518 36,000 50 Climbing Jacksonville Center
08:59AM 30.6931 -84.0883 338° Northwest 443 510 36,000  Level Jacksonville Center
09:00AM 30.8117 -84.1481 337° Northwest 443 510 36,000  Level Jacksonville Center
09:01AM 30.9236 -84.2028 337° Northwest 443 510 36,000  Level Jacksonville Center
09:02AM 31.0381 -84.2600 337° Northwest 443 510 36,000  Level Jacksonville Center
09:03AM 31.1542 -84.3175 337° Northwest 443 510 36,000  Level Jacksonville Center
09:05AM 31.3578 -84.4181 337° Northwest 442 509 36,000  Level Atlanta Center
09:06AM 31.4725 -84.4772 336° Northwest 442 509 36,000  Level Atlanta Center
09:07AM 31.5850 -84.5339 337° Northwest 442 509 36,000  Level Atlanta Center
09:08AM 31.7017 -84.5906 338° Northwest 442 509 36,000  Level Atlanta Center
09:09AM 31.8244 -84.6547 336° Northwest 442 509 36,000  Level Atlanta Center
09:10AM 31.9389 -84.7119 337° Northwest 442 509 36,000  Level Atlanta Center
09:11AM 32.0556 -84.7717 337° Northwest 442 509 36,000  Level Atlanta Center
09:12AM 32.1658 -84.8264 337° Northwest 435 501 36,000  Level Atlanta Center
09:13AM 32.2781 -84.8792 338° Northwest 435 501 36,000  Level Atlanta Center
09:14AM 32.3903 -84.9367 337° Northwest 435 501 36,000  Level Atlanta Center
09:15AM 32.4944 -84.9919 336° Northwest 445 512 36,000  Level Atlanta Center
09:16AM 32.6025 -85.0472 337° Northwest 439 505 36,000  Level Atlanta Center
09:17AM 32.7189 -85.1053 337° Northwest 439 505 36,000  Level Atlanta Center
09:18AM 32.8331 -85.1636 337° Northwest 439 505 36,000  Level Atlanta Center
09:19AM 32.9433 -85.2219 336° Northwest 439 505 36,000  Level Atlanta Center
09:20AM 33.0678 -85.2906 335° Northwest 439 505 36,000  Level Atlanta Center
09:21AM 33.1675 -85.3467 335° Northwest 439 505 36,000  Level Atlanta Center
09:22AM 33.2817 -85.4031 338° Northwest 439 505 36,000  Level Atlanta Center
09:23AM 33.3894 -85.4619 335° Northwest 439 505 36,000 100 Level Atlanta Center
09:24AM 33.5036 -85.5211 337° Northwest 439 505 36,200 600 Climbing Atlanta Center
09:25AM 33.6133 -85.5803 336° Northwest 439 505 37,200 900 Climbing Atlanta Center
09:26AM 33.7256 -85.6372 337° Northwest 439 505 38,000 400 Climbing Atlanta Center
09:27AM 33.8353 -85.6969 336° Northwest 439 505 38,000  Level Atlanta Center
09:28AM 33.9450 -85.7542 337° Northwest 434 499 38,000  Level Atlanta Center
09:29AM 34.0653 -85.8142 338° Northwest 434 499 38,000  Level Atlanta Center
09:30AM 34.1792 -85.8719 337° Northwest 434 499 38,000  Level Atlanta Center
09:31AM 34.2847 -85.9319 335° Northwest 434 499 38,000  Level Atlanta Center
09:32AM 34.3967 -85.9897 337° Northwest 434 499 38,000  Level Atlanta Center
09:33AM 34.5064 -86.0478 336° Northwest 434 499 38,000  Level Atlanta Center
09:34AM 34.6158 -86.1083 336° Northwest 434 499 38,000  Level Atlanta Center
09:35AM 34.7275 -86.1694 336° Northwest 439 505 38,000  Level Atlanta Center
09:36AM 34.8289 -86.2225 337° Northwest 439 505 38,000  Level Atlanta Center
09:37AM 34.9383 -86.2836 335° Northwest 439 505 38,000  Level Atlanta Center
09:38AM 35.0458 -86.3422 336° Northwest 434 499 38,000  Level Atlanta Center
09:39AM 35.1703 -86.4156 334° Northwest 427 491 38,000  Level Memphis Center
09:40AM 35.2786 -86.4744 336° Northwest 426 490 38,000  Level Memphis Center
09:41AM 35.3867 -86.5347 336° Northwest 426 490 38,000 48 Level Memphis Center
09:42AM 35.4950 -86.5936 336° Northwest 424 488 38,100 387 Climbing Memphis Center
09:43AM 35.6197 -86.6639 335° Northwest 419 482 38,800 439 Climbing Memphis Center
09:44AM 35.7261 -86.7242 335° Northwest 419 482 39,000 98 Climbing Memphis Center
09:45AM 35.8342 -86.7844 336° Northwest 419 482 39,000  Level Memphis Center
09:47AM 35.9439 -86.8447 336° Northwest 422 486 39,000  Level Memphis Center
09:48AM 36.0533 -86.9072 335° Northwest 423 487 39,000  Level Memphis Center
09:49AM 36.1639 -86.9700 335° Northwest 424 488 39,000  Level Memphis Center
09:50AM 36.2750 -87.0336 335° Northwest 425 489 39,000  Level Memphis Center
09:51AM 36.3858 -87.0953 336° Northwest 425 489 39,000  Level Memphis Center
09:52AM 36.4936 -87.1550 336° Northwest 422 486 39,000 -48 Level Memphis Center
09:53AM 36.5986 -87.2156 335° Northwest 416 479 38,900  Descending Memphis Center
09:54AM 36.7047 -87.2761 335° Northwest 415 478 39,000  Climbing Memphis Center
09:55AM 36.8094 -87.3372 335° Northwest 415 478 38,900 -488 Descending Memphis Center
09:56AM 36.9342 -87.4081 336° Northwest 415 478 38,000 -439 Descending Memphis Center
09:57AM 37.0414 -87.4714 335° Northwest 416 479 38,000  Level Memphis Center
09:58AM 37.1481 -87.5322 336° Northwest 419 482 38,000  Level Memphis Center
09:59AM 37.2536 -87.5958 334° Northwest 418 481 38,000  Level Memphis Center
10:00AM 37.3611 -87.6569 336° Northwest 418 481 38,000  Level Memphis Center
10:01AM 37.4517 -87.7089 336° Northwest 419 482 38,000  Level Indianapolis Center
10:02AM 37.5600 -87.7733 335° Northwest 422 486 38,000  Level Indianapolis Center
10:03AM 37.6678 -87.8381 335° Northwest 422 486 38,000  Level Indianapolis Center
10:04AM 37.7683 -87.8975 335° Northwest 422 486 38,000  Level Indianapolis Center
10:05AM 37.8758 -87.9600 335° Northwest 422 486 38,000  Level Indianapolis Center
10:06AM 37.9822 -88.0239 335° Northwest 422 486 38,000  Level Indianapolis Center
10:07AM 38.0897 -88.0878 335° Northwest 422 486 38,000  Level Indianapolis Center
10:08AM 38.2200 -88.1661 335° Northwest 423 487 38,000  Level Indianapolis Center
10:09AM 38.3267 -88.2300 335° Northwest 423 487 38,000  Level Indianapolis Center
10:10AM 38.4311 -88.2931 335° Northwest 418 481 38,000 -919 Level Indianapolis Center
10:11AM 38.5408 -88.3375 342° North 414 476 36,100 -1,500 Descending Indianapolis Center
10:12AM 38.6506 -88.3942 338° Northwest 419 482 34,900 -726 Descending Indianapolis Center
10:13AM 38.7594 -88.4603 335° Northwest 427 491 34,600 -629 Descending Indianapolis Center
10:14AM 38.8653 -88.5275 334° Northwest 427 491 33,600 -976 Descending Indianapolis Center
10:15AM 38.9728 -88.5933 335° Northwest 427 491 32,600 -780 Descending Indianapolis Center
10:16AM 39.0994 -88.6753 333° Northwest 426 490 32,000 -290 Descending Indianapolis Center
10:17AM 39.2044 -88.7414 334° Northwest 422 486 32,000 -339 Level Indianapolis Center
10:18AM 39.3086 -88.8075 334° Northwest 420 483 31,300 -823 Descending Indianapolis Center
10:19AM 39.4119 -88.8733 334° Northwest 417 480 30,300 -1,463 Descending Indianapolis Center
10:20AM 39.5142 -88.9394 333° Northwest 412 474 28,300 -2,463 Descending Indianapolis Center
10:21AM 39.6386 -89.0200 334° Northwest 415 478 24,800 -2,842 Descending Kansas City Center
10:22AM 39.7375 -89.0861 333° Northwest 406 467 22,000 -2,565 Descending Kansas City Center
10:24AM 39.8347 -89.1478 334° Northwest 394 453 19,500 -2,208 Descending Kansas City Center
10:25AM 39.9294 -89.2097 333° Northwest 387 445 17,400 -2,032 Descending Kansas City Center
10:26AM 40.0189 -89.2689 333° Northwest 369 425 15,300 -1,968 Descending Kansas City Center
10:27AM 40.1239 -89.3369 334° Northwest 355 409 13,300 -1,756 Descending Kansas City Center
10:28AM 40.2064 -89.3789 339° North 327 376 11,700 -1,721 Descending Kansas City Center
10:29AM 40.2803 -89.4172 338° Northwest 297 342 9,800 -2,136 Descending Kansas City Center
10:30AM 40.3633 -89.4628 337° Northwest 276 318 7,000 -2,436 Descending Chicago Center
10:31AM 40.4325 -89.5000 338° Northwest 272 313 4,400 -2,081 Descending Chicago Center
10:32AM 40.4994 -89.5367 337° Northwest 265 305 2,700 -968 Descending Chicago Center
10:33AM 40.5564 -89.5669 338° Northwest 228 262 2,400 -145 Descending Chicago Center
10:34AM 40.5981 -89.5894 338° Northwest 164 189 2,400 -432 Level Chicago Center
10:35AM 40.6297 -89.6358 312° West 143 165 1,500 -768 Descending Chicago Center
10:36AM 40.6522 -89.6761 306° West 143 165 800 -387 Descending Chicago Center
10:37AM 40.6744 -89.7156 307° West 143 165 700 -97 Descending Chicago Center

Login

Don't have an account? Register now (free) for customized features, flight alerts, and more!